Hlavní strana
METAR-TAF:

METAR-TAF

Letiště :

Salem-Leckrone Airport

Salem, Illinois, Spojené státy americké

zeměpisná šířka: 38-38-34N, zeměpisná délka: 088-57-51W, výška: 175 m

Aktuální stav počasí

Zpráva byla vytvořena před 8 minutami, v 08:35 UTC
Bezvětří
Teplota 19°C
Vlhkost vzduchu 94%
Tlak 1014 hPa
Viditelnost: 16.1 km
Polojasno ve výšce 9000 ft
Oblačno až skoro zataženo ve výšce 12000 ft

METAR: KSLO 290835Z AUTO 00000KT 10SM SCT090 BKN120 19/18 A2993 RMK AO2 T01850178

Čas: 03:43 (08:43 UTC)


TAF: chybějící

Stav a předpovědi počasí z více než 4 000 letišť (zprávy METAR a TAF).

Červené a žluté tečky na mapě představují dostupné meteorologické stanice.

Když kurzor umístíte na tečku, zobrazí se název stanice.

Pak kliknutím zobrazíte stav a předpověď počasí.

Chcete-li změnit mapu, kliknutím na zelené tlačítko se znaménkem +mapu přiblížíte, kliknutím na zelené tlačítko se znaménkem – mapu oddálíte a kliknutím na zelené šipky přejdete na sousední mapy.


METAR-TAF: